Archival Weather

Václav Havel Intl Apt

Prague, Czechia (LKPR)

Report from: Monday, May 29, 2023 12:00 PM CEST
Current time: Saturday, February 24, 2024 4:06 PM CET

Current weather – Weather history – Daily summaries
Weather forecast

Temperature20.0°C (68.0°F)
Dew point4.0°C (39.2°F)
Winds 6 kts (3.1 m/s, 6.9 mph) Vrb
Winds variableWinds variable from North-Northwest (330°) to East-Northeast (70°)
Clouds Sky clear
Altimeter30.12 in.Hg (1020 mB)
Relative humidity35 %
Density altitude480 ft. (146 m)
Remarks Ceiling and visibility OK
No significant changes expected in the next two hours
Flight conditions Visual Meteorological Conditions
Raw dataLKPR 291000Z 01006KT 330V070 CAVOK 20/04 Q1020 NOSIG
An error has occurred. This application may no longer respond until reloaded. Reload 🗙